Ana Sayfa
METAR-TAF:

METAR-TAF

Havaalanları :

Reynosa, Meksika

Enlem: 26-01N, Boylam: 098-14W, yükseklik: 39 m

Güncel hava durumu gözlemi

Rapor saat 23:56 UTC de 45 dakika önce yapıldı.
Rüzgar doğudan 4 kt
Sıcaklık 18°C
Nem 18%
Basınç 1026 hPa
Görüş mesafesi: 12.9 km
Açık gökyüzü

METAR: MMRX 272356Z 10004KT 8SM SKC 18/M07 A3031 RMK SLP240 57020 965 HZY

Saat: 18:41 (00:41 UTC)

Tahmin

Rapor saat 17:15 UTC de 7 saat ve 26 dakika önce yapıldı.
Ayın 27'si saat 18 UTC'den ayın 28'si saat 18 UTC'ye kadar geçerli Tahmin
Rüzgar kuzey/kuzeydoğudan 15 kt
Görüş mesafesi: 10 km
Açık gökyüzü
Dönüşüyor
ayın 28'si saat 01 UTC'den ayın 28'si saat 02 UTC'ye kadar
Rüzgar kuzeydan kt
Ayın 28'si saat 1500 UTC'den
Rüzgar doğudan 10 kt
Görüş mesafesi: 10 km
Açık gökyüzü

TAF: MMRX 271715Z 2718/2818 03015KT P6SM SKC BECMG 2801/2802 00000KT FM281500 10010KT P6SM SKC

4.000'den fazla havaalanı için hava durumu gözlemleri ve tahminleri (METAR ve TAF raporları).

Kullanılabilir istasyonlar harita üzerinde sarı ve kırmızı noktalarla gösterilir.

İstasyonun adını görmek için fareyi noktanın üzerinde gezdirin.

Sonrasında hava gözlem ve tahminlerini görmek için tıklayın.

Haritayı değiştirmek için: yaklaştırmak için siyah artı işaretli yeşil düğmeye ve uzaklaştırmak için de eksi işaretli düğmeye hızla tıklayın; bitişik haritalar için yeşil okları kullanın.


METAR-TAF: